Tribune, Kentucky
Current Conditions -  °F | °C
As of 7:35 PM on Wednesday 26 Nov 2014 (Local Time) from K5M9 Reporting Station
Drizzle Drizzle  
Wind Chill: 35°   Ceiling: 500
Heat Index: 35°   Visibility: 3mi
Dew Point: 35°   Wind: 3mph
Humidity: 99%   Direction: 270°W
Pressure: 30.02"   Gusts: NA
Location:  37.3359°N, 88.1049°W
Report Text: K5M9 270135Z AUTO 27003KT 3SM DZ OVC005 02/02 A3002 RMK AO2 T00160015
Loading
Personal Weather Stations






























Interactive Weather Map New forecast layout! Learn more

10-Day Weather Forecast

Advertisements
Track Severe Weather on mobile